»·PEaware :: N3141P KSNA-KBFL

N3141P :: KSNA-KBFL

FLIGHT INFORMATION

Flight Status: Arrived
Operator: Privately registered:
United States
More flights under this callsign
Pilot: Andrew N. (12823)
Aircraft: Unknown
(PIPA)
More flights by this aircraft type
Origin: KSNA John Wayne-Orange Co
United States
Destination: KBFL Meadows
United States
More flights between these airports :: More routes between these airports
Route: +MUSEL8 SLI V459 LHS FASTO2
File this flight plan on PilotEdge
Remarks:
Altitude:
(Current/Filed)
10,000ft
Speed:
(Current/Filed)
200kts
Departed: 02-Oct-17 09:33 AM
Arrived: 02-Oct-17 10:26 AM
Distance/Time
Traveled:
121nm/0:53
Distance/Time
To Go:
Arrived

Flight Plot

Page will automatically refresh every two minutes.

Flight plan parsing failed; only flown route is shown


Map Options




Map Legend


Flown Route
Filed Route
Departure Airport
Arrival Airport
Navaid (VOR, NDB)
Fix

Horizontal Profiles

Position Reports

Time Latitude Longitude Heading Altitude Ground
Speed
02-Oct-17 09:21 33.672634 -117.866165 258 49ft 0kts
02-Oct-17 09:22 33.672635 -117.866165 258 49ft 0kts
02-Oct-17 09:23 33.672635 -117.866165 258 49ft 0kts
02-Oct-17 09:24 33.672635 -117.866165 258 49ft 0kts
02-Oct-17 09:25 33.672635 -117.866165 258 49ft 0kts
02-Oct-17 09:26 33.672635 -117.866165 258 49ft 0kts
02-Oct-17 09:27 33.672635 -117.866165 258 49ft 0kts
02-Oct-17 09:28 33.672635 -117.866165 258 49ft 0kts
02-Oct-17 09:29 33.672635 -117.866165 258 49ft 0kts
02-Oct-17 09:30 33.672619 -117.866287 266 49ft 1kts
02-Oct-17 09:31 33.672845 -117.867009 310 49ft 0kts
02-Oct-17 09:32 33.674869 -117.866642 28 49ft 15kts
02-Oct-17 09:33 33.678437 -117.864397 27 49ft 13kts
02-Oct-17 09:34 33.679958 -117.863611 298 49ft 0kts
02-Oct-17 09:35 33.680131 -117.863987 296 49ft 7kts
02-Oct-17 09:36 33.679802 -117.866240 208 49ft 33kts
02-Oct-17 09:37 33.660290 -117.878337 207 1070ft 91kts
02-Oct-17 09:38 33.635652 -117.887343 188 2416ft 99kts
02-Oct-17 09:39 33.605329 -117.892043 188 3460ft 120kts
02-Oct-17 09:40 33.581121 -117.911797 261 4623ft 125kts
02-Oct-17 09:41 33.577295 -117.953190 261 5815ft 127kts
02-Oct-17 09:42 33.581143 -117.993072 329 6954ft 137kts
02-Oct-17 09:43 33.617846 -118.004714 343 8056ft 141kts
02-Oct-17 09:44 33.656157 -118.015731 336 9176ft 138kts
02-Oct-17 09:45 33.691964 -118.026928 338 10005ft 146kts
02-Oct-17 09:46 33.735002 -118.040403 342 9998ft 172kts
02-Oct-17 09:47 33.780902 -118.054438 335 10417ft 158kts
02-Oct-17 09:48 33.817035 -118.074698 331 11356ft 135kts
02-Oct-17 09:49 33.849857 -118.093314 330 11989ft 141kts
02-Oct-17 09:50 33.888307 -118.115337 331 11988ft 164kts
02-Oct-17 09:51 33.929603 -118.139002 331 11985ft 171kts
02-Oct-17 09:52 33.972337 -118.163549 331 11984ft 173kts
02-Oct-17 09:53 34.015108 -118.188172 331 11999ft 173kts
02-Oct-17 09:54 34.058020 -118.212927 331 11988ft 174kts
02-Oct-17 09:55 34.100881 -118.237688 331 11983ft 174kts
02-Oct-17 09:56 34.142018 -118.261500 331 11987ft 174kts
02-Oct-17 09:57 34.185105 -118.286439 331 11987ft 175kts
02-Oct-17 09:58 34.228867 -118.311815 331 11977ft 175kts
02-Oct-17 09:59 34.272070 -118.336896 331 11977ft 174kts
02-Oct-17 10:00 34.315654 -118.362231 331 11977ft 174kts
02-Oct-17 10:01 34.359036 -118.387496 331 11976ft 174kts
02-Oct-17 10:02 34.402267 -118.412680 331 11976ft 174kts
02-Oct-17 10:03 34.445226 -118.437729 331 12029ft 172kts
02-Oct-17 10:04 34.488215 -118.462835 331 12029ft 173kts
02-Oct-17 10:05 34.531309 -118.488051 331 12029ft 173kts
02-Oct-17 10:06 34.574601 -118.513387 331 12029ft 173kts
02-Oct-17 10:07 34.617951 -118.538794 331 11983ft 175kts
02-Oct-17 10:08 34.661403 -118.564386 332 11979ft 175kts
02-Oct-17 10:09 34.702601 -118.598228 321 11987ft 188kts
02-Oct-17 10:10 34.743912 -118.639530 322 12044ft 194kts
02-Oct-17 10:11 34.782067 -118.677960 319 12038ft 180kts
02-Oct-17 10:12 34.819636 -118.716413 319 12039ft 175kts
02-Oct-17 10:13 34.856577 -118.754059 318 12035ft 175kts
02-Oct-17 10:14 34.894939 -118.793308 318 12047ft 182kts
02-Oct-17 10:15 34.932938 -118.832015 319 11305ft 179kts
02-Oct-17 10:16 34.969723 -118.869960 320 8599ft 177kts
02-Oct-17 10:17 35.009322 -118.911074 319 5758ft 195kts
02-Oct-17 10:18 35.049453 -118.951637 320 4594ft 185kts
02-Oct-17 10:19 35.094066 -118.969444 32 4539ft 196kts
02-Oct-17 10:20 35.138103 -118.933221 32 4540ft 194kts
02-Oct-17 10:21 35.182168 -118.896950 32 4000ft 182kts
02-Oct-17 10:22 35.219480 -118.865912 32 2974ft 126kts
02-Oct-17 10:23 35.248631 -118.851232 326 3002ft 137kts
02-Oct-17 10:24 35.282776 -118.885229 325 2558ft 184kts
02-Oct-17 10:25 35.324644 -118.922002 314 2046ft 181kts
02-Oct-17 10:26 35.358433 -118.964135 312 1874ft 172kts
02-Oct-17 10:27 35.390035 -119.003054 315 1439ft 146kts
02-Oct-17 10:28 35.413484 -119.031559 312 913ft 92kts
02-Oct-17 10:29 35.429086 -119.050098 309 575ft 75kts
02-Oct-17 10:30 35.436353 -119.057553 91 497ft 0kts
02-Oct-17 10:31 35.436201 -119.056806 134 497ft 11kts
02-Oct-17 10:32 35.436436 -119.054958 218 497ft 0kts
02-Oct-17 10:33 35.436436 -119.054958 218 497ft 0kts
02-Oct-17 10:34 35.436436 -119.054958 218 497ft 0kts

Navigation Log

Ident Type
Flight plan parsing failed, navigation log unavailable